createdAt,value
2017-06-04T00:00:46.067Z,0
2017-06-04T00:02:08.553Z,0
2017-06-04T00:03:31.025Z,0
2017-06-04T00:04:53.204Z,0
2017-06-04T00:06:15.141Z,0
2017-06-04T00:07:36.982Z,0
2017-06-04T00:08:59.134Z,0
2017-06-04T00:10:21.755Z,0
2017-06-04T00:11:44.492Z,0
2017-06-04T00:13:06.329Z,0
2017-06-04T00:14:28.815Z,0
2017-06-04T00:15:50.664Z,0
2017-06-04T00:17:12.867Z,0
2017-06-04T00:18:35.447Z,0
2017-06-04T00:19:57.652Z,0
2017-06-04T00:21:19.560Z,0
2017-06-04T00:22:41.798Z,0
2017-06-04T00:24:03.952Z,0
2017-06-04T00:25:25.842Z,0
2017-06-04T00:26:47.731Z,0
2017-06-04T00:28:10.125Z,0
2017-06-04T00:29:32.278Z,0
2017-06-04T00:30:54.164Z,0
2017-06-04T00:32:16.026Z,0
2017-06-04T00:33:38.989Z,0
2017-06-04T00:35:00.181Z,0
2017-06-04T00:36:22.016Z,0
2017-06-04T00:37:43.881Z,0
2017-06-04T00:39:05.385Z,0
2017-06-04T00:40:26.901Z,0
2017-06-04T00:41:49.364Z,0
2017-06-04T00:43:11.545Z,0
2017-06-04T00:44:34.205Z,0
2017-06-04T00:45:56.373Z,0
2017-06-04T00:47:18.383Z,0
2017-06-04T00:48:40.224Z,0
2017-06-04T00:50:03.052Z,0
2017-06-04T00:51:25.002Z,0
2017-06-04T00:52:46.848Z,0
2017-06-04T00:54:09.298Z,0
2017-06-04T00:55:31.384Z,0
2017-06-04T00:56:53.846Z,0
2017-06-04T00:58:16.003Z,0
2017-06-04T00:59:37.874Z,0
2017-06-04T01:01:00.395Z,0
2017-06-04T01:02:22.221Z,0
2017-06-04T01:03:44.364Z,0
2017-06-04T01:05:06.885Z,0
2017-06-04T01:06:29.395Z,0
2017-06-04T01:07:51.587Z,0
2017-06-04T01:09:13.740Z,0
2017-06-04T01:10:35.586Z,0
2017-06-04T01:11:57.454Z,0
2017-06-04T01:13:19.383Z,0
2017-06-04T01:14:41.555Z,0
2017-06-04T01:16:03.165Z,0
2017-06-04T01:17:24.989Z,0
2017-06-04T01:18:47.153Z,0
2017-06-04T01:20:09.307Z,0
2017-06-04T01:21:31.465Z,0
2017-06-04T01:22:53.924Z,0
2017-06-04T01:24:16.115Z,0
2017-06-04T01:25:37.947Z,0
2017-06-04T01:27:00.403Z,0
2017-06-04T01:28:22.182Z,0
2017-06-04T01:29:43.762Z,0
2017-06-04T01:31:05.336Z,0
2017-06-04T01:32:27.205Z,0
2017-06-04T01:33:49.691Z,0
2017-06-04T01:35:11.593Z,0
2017-06-04T01:36:33.744Z,0
2017-06-04T01:37:55.275Z,0
2017-06-04T01:39:17.382Z,0
2017-06-04T01:40:39.383Z,0
2017-06-04T01:42:01.216Z,0
2017-06-04T01:43:23.399Z,0
2017-06-04T01:44:45.865Z,0
2017-06-04T01:46:07.378Z,0
2017-06-04T01:47:29.213Z,0
2017-06-04T01:48:51.200Z,0
2017-06-04T01:50:13.910Z,0
2017-06-04T01:51:35.103Z,0
2017-06-04T01:52:57.603Z,0
2017-06-04T01:54:19.104Z,0
2017-06-04T01:55:41.814Z,0
2017-06-04T01:57:03.963Z,0
2017-06-04T01:58:26.142Z,0
2017-06-04T01:59:48.334Z,0
2017-06-04T02:01:10.856Z,0
2017-06-04T02:02:33.043Z,0
2017-06-04T02:03:54.856Z,0
2017-06-04T02:05:16.683Z,0
2017-06-04T02:06:39.121Z,0
2017-06-04T02:08:01.578Z,0
2017-06-04T02:09:23.403Z,0
2017-06-04T02:10:45.553Z,0
2017-06-04T02:12:07.984Z,0
2017-06-04T02:13:30.138Z,0
2017-06-04T02:14:52.621Z,0
2017-06-04T02:16:14.392Z,0
2017-06-04T02:17:36.513Z,0
2017-06-04T02:18:58.485Z,0
2017-06-04T02:20:21.101Z,0
2017-06-04T02:21:42.602Z,0
2017-06-04T02:23:04.716Z,0
2017-06-04T02:24:26.544Z,0
2017-06-04T02:25:48.683Z,0
2017-06-04T02:27:10.534Z,0
2017-06-04T02:28:32.718Z,0
2017-06-04T02:29:54.237Z,0
2017-06-04T02:31:16.135Z,0
2017-06-04T02:32:37.993Z,0
2017-06-04T02:33:59.807Z,0
2017-06-04T02:35:22.290Z,4
2017-06-04T02:36:44.139Z,4
2017-06-04T02:38:06.285Z,4
2017-06-04T02:39:28.048Z,8
2017-06-04T02:40:49.882Z,8
2017-06-04T02:42:12.020Z,8
2017-06-04T02:43:33.843Z,12
2017-06-04T02:44:56.932Z,12
2017-06-04T02:46:18.792Z,16
2017-06-04T02:47:40.953Z,16
2017-06-04T02:49:03.102Z,20
2017-06-04T02:50:25.906Z,20
2017-06-04T02:51:47.741Z,24
2017-06-04T02:53:09.574Z,28
2017-06-04T02:54:30.770Z,32
2017-06-04T02:55:53.214Z,32
2017-06-04T02:57:15.708Z,36
2017-06-04T02:58:37.646Z,44
2017-06-04T02:59:59.513Z,48
2017-06-04T03:01:21.646Z,52
2017-06-04T03:02:44.216Z,60
2017-06-04T03:04:05.725Z,64
2017-06-04T03:05:27.864Z,68
2017-06-04T03:06:50.642Z,72
2017-06-04T03:08:12.811Z,80
2017-06-04T03:09:35.263Z,84
2017-06-04T03:10:56.774Z,92
2017-06-04T03:12:19.143Z,104
2017-06-04T03:13:41.276Z,116
2017-06-04T03:15:03.082Z,120
2017-06-04T03:16:24.953Z,132
2017-06-04T03:17:47.059Z,140
2017-06-04T03:19:08.903Z,148
2017-06-04T03:20:30.735Z,156
2017-06-04T03:21:53.206Z,168
2017-06-04T03:23:15.602Z,180
2017-06-04T03:24:37.744Z,200
2017-06-04T03:25:59.248Z,216
2017-06-04T03:27:20.825Z,240
2017-06-04T03:28:43.365Z,268
2017-06-04T03:30:05.514Z,292
2017-06-04T03:31:27.020Z,316
2017-06-04T03:32:49.164Z,340
2017-06-04T03:34:11.283Z,368
2017-06-04T03:35:32.785Z,388
2017-06-04T03:36:54.921Z,396
2017-06-04T03:38:16.784Z,408
2017-06-04T03:39:38.983Z,408
2017-06-04T03:41:00.542Z,400
2017-06-04T03:42:22.510Z,392
2017-06-04T03:43:45.006Z,380
2017-06-04T03:45:06.768Z,372
2017-06-04T03:46:28.685Z,388
2017-06-04T03:47:50.532Z,404
2017-06-04T03:49:12.987Z,432
2017-06-04T03:50:35.124Z,456
2017-06-04T03:51:57.271Z,504
2017-06-04T03:53:19.750Z,544
2017-06-04T03:54:41.602Z,604
2017-06-04T03:56:03.984Z,680
2017-06-04T03:57:25.546Z,808
2017-06-04T03:58:47.697Z,952
2017-06-04T04:00:08.993Z,1112
2017-06-04T04:01:31.445Z,1188
2017-06-04T04:02:53.906Z,1184
2017-06-04T04:04:16.171Z,1076
2017-06-04T04:05:37.677Z,1204
2017-06-04T04:06:59.900Z,1044
2017-06-04T04:08:21.744Z,828
2017-06-04T04:09:43.247Z,788
2017-06-04T04:11:05.073Z,752
2017-06-04T04:12:27.523Z,860
2017-06-04T04:13:49.043Z,1116
2017-06-04T04:15:11.190Z,1336
2017-06-04T04:16:32.784Z,1296
2017-06-04T04:17:54.919Z,1476
2017-06-04T04:19:16.744Z,1508
2017-06-04T04:20:38.848Z,1496
2017-06-04T04:22:00.658Z,1624
2017-06-04T04:23:22.857Z,1652
2017-06-04T04:24:44.693Z,1688
2017-06-04T04:26:06.524Z,1580
2017-06-04T04:27:28.794Z,1416
2017-06-04T04:28:51.555Z,1348
2017-06-04T04:30:13.423Z,1204
2017-06-04T04:31:35.052Z,1240
2017-06-04T04:32:56.892Z,1176
2017-06-04T04:34:19.344Z,1068
2017-06-04T04:35:41.238Z,892
2017-06-04T04:37:03.385Z,832
2017-06-04T04:38:25.275Z,672
2017-06-04T04:39:47.822Z,440
2017-06-04T04:41:10.293Z,476
2017-06-04T04:42:31.485Z,552
2017-06-04T04:43:54.080Z,596
2017-06-04T04:45:16.893Z,644
2017-06-04T04:46:38.722Z,668
2017-06-04T04:47:59.972Z,712
2017-06-04T04:49:22.120Z,740
2017-06-04T04:50:44.312Z,812
2017-06-04T04:52:06.454Z,980
2017-06-04T04:53:28.922Z,1132
2017-06-04T04:54:51.083Z,1136
2017-06-04T04:56:13.594Z,1268
2017-06-04T04:57:36.127Z,1532
2017-06-04T04:58:57.940Z,1932
2017-06-04T05:00:20.252Z,1964
2017-06-04T05:01:42.394Z,1860
2017-06-04T05:03:03.933Z,1720
2017-06-04T05:04:26.074Z,1732
2017-06-04T05:05:48.000Z,1928
2017-06-04T05:07:10.133Z,2016
2017-06-04T05:08:32.296Z,2072
2017-06-04T05:09:54.759Z,2144
2017-06-04T05:11:16.599Z,2232
2017-06-04T05:12:38.543Z,2204
2017-06-04T05:14:00.672Z,2260
2017-06-04T05:15:22.265Z,2428
2017-06-04T05:16:44.193Z,2376
2017-06-04T05:18:06.344Z,2304
2017-06-04T05:19:28.814Z,2388
2017-06-04T05:20:50.332Z,2560
2017-06-04T05:22:12.492Z,2596
2017-06-04T05:23:34.324Z,2576
2017-06-04T05:24:56.474Z,2576
2017-06-04T05:26:18.705Z,2568
2017-06-04T05:27:40.548Z,2660
2017-06-04T05:29:02.741Z,2736
2017-06-04T05:30:24.463Z,2764
2017-06-04T05:31:46.402Z,3400
2017-06-04T05:33:08.300Z,3552
2017-06-04T05:34:31.174Z,3888
2017-06-04T05:35:53.021Z,4124
2017-06-04T05:37:15.184Z,4600
2017-06-04T05:38:36.703Z,4908
2017-06-04T05:39:59.324Z,5316
2017-06-04T05:41:21.185Z,5436
2017-06-04T05:42:43.373Z,5600
2017-06-04T05:44:05.515Z,5872
2017-06-04T05:45:27.414Z,6232
2017-06-04T05:46:49.666Z,6528
2017-06-04T05:48:11.284Z,6632
2017-06-04T05:49:32.833Z,6528
2017-06-04T05:50:55.273Z,6308
2017-06-04T05:52:17.484Z,5944
2017-06-04T05:53:39.640Z,5528
2017-06-04T05:55:01.473Z,5452
2017-06-04T05:56:23.285Z,5564
2017-06-04T05:57:45.747Z,5800
2017-06-04T05:59:07.603Z,5784
2017-06-04T06:00:29.114Z,5692
2017-06-04T06:01:51.884Z,5212
2017-06-04T06:03:13.713Z,4828
2017-06-04T06:04:35.559Z,5088
2017-06-04T06:05:57.706Z,4796
2017-06-04T06:07:20.643Z,5748
2017-06-04T06:08:42.539Z,5984
2017-06-04T06:10:04.383Z,5704
2017-06-04T06:11:26.529Z,6584
2017-06-04T06:12:48.926Z,5988
2017-06-04T06:14:11.392Z,5456
2017-06-04T06:15:33.214Z,5888
2017-06-04T06:16:55.051Z,6212
2017-06-04T06:18:17.195Z,6288
2017-06-04T06:19:39.348Z,5516
2017-06-04T06:21:01.503Z,4124
2017-06-04T06:22:23.114Z,3952
2017-06-04T06:23:45.870Z,3836
2017-06-04T06:25:07.712Z,4280
2017-06-04T06:26:29.864Z,4608
2017-06-04T06:27:51.714Z,5228
2017-06-04T06:29:13.702Z,4644
2017-06-04T06:30:35.850Z,4284
2017-06-04T06:31:58.374Z,6052
2017-06-04T06:33:20.540Z,8452
2017-06-04T06:34:43.232Z,8300
2017-06-04T06:36:05.464Z,8716
2017-06-04T06:37:26.990Z,7652
2017-06-04T06:38:49.134Z,7880
2017-06-04T06:40:11.324Z,7668
2017-06-04T06:41:33.144Z,8432
2017-06-04T06:42:55.355Z,8852
2017-06-04T06:44:17.915Z,8508
2017-06-04T06:45:39.995Z,9116
2017-06-04T06:47:01.505Z,10232
2017-06-04T06:48:23.353Z,11492
2017-06-04T06:49:45.186Z,10244
2017-06-04T06:51:07.646Z,8332
2017-06-04T06:52:29.475Z,10028
2017-06-04T06:53:51.022Z,8928
2017-06-04T06:55:13.186Z,8944
2017-06-04T06:56:35.335Z,10248
2017-06-04T06:57:57.792Z,7428
2017-06-04T06:59:19.975Z,6528
2017-06-04T07:00:41.809Z,6472
2017-06-04T07:02:04.645Z,6296
2017-06-04T07:03:26.815Z,4528
2017-06-04T07:04:48.983Z,5236
2017-06-04T07:06:11.154Z,9352
2017-06-04T07:07:33.530Z,11832
2017-06-04T07:08:55.752Z,13888
2017-06-04T07:10:17.275Z,13536
2017-06-04T07:11:39.745Z,13324
2017-06-04T07:13:02.196Z,12748
2017-06-04T07:14:24.064Z,13008
2017-06-04T07:15:46.318Z,12840
2017-06-04T07:17:07.822Z,13040
2017-06-04T07:18:30.244Z,12204
2017-06-04T07:19:52.084Z,10164
2017-06-04T07:21:13.584Z,11632
2017-06-04T07:22:35.766Z,13460
2017-06-04T07:23:58.617Z,14260
2017-06-04T07:25:20.826Z,12996
2017-06-04T07:26:42.972Z,14008
2017-06-04T07:28:04.511Z,17440
2017-06-04T07:29:26.957Z,19008
2017-06-04T07:30:49.085Z,20480
2017-06-04T07:32:11.256Z,21760
2017-06-04T07:33:33.098Z,22592
2017-06-04T07:34:55.810Z,22912
2017-06-04T07:36:18.035Z,22368
2017-06-04T07:37:39.864Z,20192
2017-06-04T07:39:01.764Z,18496
2017-06-04T07:40:23.935Z,17536
2017-06-04T07:41:46.104Z,16480
2017-06-04T07:43:07.715Z,16288
2017-06-04T07:44:29.335Z,16864
2017-06-04T07:45:52.197Z,16096
2017-06-04T07:47:14.353Z,14804
2017-06-04T07:48:36.265Z,13556
2017-06-04T07:49:58.753Z,12668
2017-06-04T07:51:21.262Z,12528
2017-06-04T07:52:42.783Z,13608
2017-06-04T07:54:04.965Z,14736
2017-06-04T07:55:27.178Z,14332
2017-06-04T07:56:49.994Z,14020
2017-06-04T07:58:12.212Z,16672
2017-06-04T07:59:34.378Z,18016
2017-06-04T08:00:56.934Z,18144
2017-06-04T08:02:19.125Z,19776
2017-06-04T08:03:41.400Z,19648
2017-06-04T08:05:03.924Z,20448
2017-06-04T08:06:26.083Z,20512
2017-06-04T08:07:48.284Z,20320
2017-06-04T08:09:09.857Z,20000
2017-06-04T08:10:32.315Z,19712
2017-06-04T08:11:54.511Z,20000
2017-06-04T08:13:17.055Z,20064
2017-06-04T08:14:39.363Z,20576
2017-06-04T08:16:01.574Z,20608
2017-06-04T08:17:23.403Z,19456
2017-06-04T08:18:45.865Z,21088
2017-06-04T08:20:07.846Z,21632
2017-06-04T08:21:29.708Z,22048
2017-06-04T08:22:51.601Z,22304
2017-06-04T08:24:13.894Z,22048
2017-06-04T08:25:36.384Z,22784
2017-06-04T08:26:58.873Z,23360
2017-06-04T08:28:20.703Z,23936
2017-06-04T08:29:43.609Z,24256
2017-06-04T08:31:05.774Z,24960
2017-06-04T08:32:28.003Z,25120
2017-06-04T08:33:50.265Z,25184
2017-06-04T08:35:13.126Z,25280
2017-06-04T08:36:35.276Z,25152
2017-06-04T08:37:57.486Z,24864
2017-06-04T08:39:19.334Z,24832
2017-06-04T08:40:41.476Z,24672
2017-06-04T08:42:03.639Z,24608
2017-06-04T08:43:26.136Z,24608
2017-06-04T08:44:48.303Z,24640
2017-06-04T08:46:11.035Z,24512
2017-06-04T08:47:32.901Z,24384
2017-06-04T08:48:55.045Z,24224
2017-06-04T08:50:17.513Z,24096
2017-06-04T08:51:40.254Z,24128
2017-06-04T08:53:01.786Z,23968
2017-06-04T08:54:24.034Z,23840
2017-06-04T08:55:45.578Z,23616
2017-06-04T08:57:08.068Z,23680
2017-06-04T08:58:30.565Z,23680
2017-06-04T08:59:52.723Z,23616
2017-06-04T09:01:14.575Z,23328
2017-06-04T09:02:36.727Z,22976
2017-06-04T09:03:59.195Z,22464
2017-06-04T09:05:21.495Z,22272
2017-06-04T09:06:43.702Z,22368
2017-06-04T09:08:06.207Z,22496
2017-06-04T09:09:28.368Z,21408
2017-06-04T09:10:50.972Z,21184
2017-06-04T09:12:13.139Z,22752
2017-06-04T09:13:35.374Z,24832
2017-06-04T09:14:57.535Z,25888
2017-06-04T09:16:19.712Z,26688
2017-06-04T09:17:42.036Z,26688
2017-06-04T09:19:04.485Z,26560
2017-06-04T09:20:26.317Z,25504
2017-06-04T09:21:48.491Z,24736
2017-06-04T09:23:10.661Z,25088
2017-06-04T09:24:33.165Z,24096
2017-06-04T09:25:55.664Z,22944
2017-06-04T09:27:17.831Z,22400
2017-06-04T09:28:40.345Z,22304
2017-06-04T09:30:03.112Z,21728
2017-06-04T09:31:25.630Z,21120
2017-06-04T09:32:47.228Z,21632
2017-06-04T09:34:09.723Z,22464
2017-06-04T09:35:32.192Z,23200
2017-06-04T09:36:54.354Z,23424
2017-06-04T09:38:16.516Z,22848
2017-06-04T09:39:39.010Z,22720
2017-06-04T09:41:01.523Z,21760
2017-06-04T09:42:24.017Z,20960
2017-06-04T09:43:46.627Z,20480
2017-06-04T09:45:09.199Z,19520
2017-06-04T09:46:31.673Z,18624
2017-06-04T09:47:53.619Z,17568
2017-06-04T09:49:16.324Z,16800
2017-06-04T09:50:38.237Z,15676
2017-06-04T09:52:00.028Z,15740
2017-06-04T09:53:22.205Z,14520
2017-06-04T09:54:44.189Z,14628
2017-06-04T09:56:06.804Z,15012
2017-06-04T09:57:29.283Z,16240
2017-06-04T09:58:51.554Z,13132
2017-06-04T10:00:13.715Z,11496
2017-06-04T10:01:35.554Z,11960
2017-06-04T10:02:58.535Z,13748
2017-06-04T10:04:21.084Z,19296
2017-06-04T10:05:42.710Z,17376
2017-06-04T10:07:04.884Z,13432
2017-06-04T10:08:27.703Z,10820
2017-06-04T10:09:49.644Z,11040
2017-06-04T10:11:11.515Z,12224
2017-06-04T10:12:33.674Z,11060
2017-06-04T10:13:56.112Z,10028
2017-06-04T10:15:18.324Z,9384
2017-06-04T10:16:40.243Z,10328
2017-06-04T10:18:02.421Z,11036
2017-06-04T10:19:24.636Z,12016
2017-06-04T10:20:46.707Z,10032
2017-06-04T10:22:09.224Z,9960
2017-06-04T10:23:31.684Z,9812
2017-06-04T10:24:53.466Z,10104
2017-06-04T10:26:15.610Z,11732
2017-06-04T10:27:38.294Z,13976
2017-06-04T10:29:00.765Z,16544
2017-06-04T10:30:23.323Z,16320
2017-06-04T10:31:45.494Z,18816
2017-06-04T10:33:07.720Z,18752
2017-06-04T10:34:30.191Z,17312
2017-06-04T10:35:52.340Z,15412
2017-06-04T10:37:14.200Z,15520
2017-06-04T10:38:36.375Z,13112
2017-06-04T10:39:58.934Z,12804
2017-06-04T10:41:21.104Z,12068
2017-06-04T10:42:43.704Z,11588
2017-06-04T10:44:06.169Z,10112
2017-06-04T10:45:28.386Z,9712
2017-06-04T10:46:50.803Z,9292
2017-06-04T10:48:13.335Z,9004
2017-06-04T10:49:35.864Z,10340
2017-06-04T10:50:57.710Z,13572
2017-06-04T10:52:20.187Z,13220
2017-06-04T10:53:41.716Z,12156
2017-06-04T10:55:03.565Z,11796
2017-06-04T10:56:25.733Z,12056
2017-06-04T10:57:47.843Z,13800
2017-06-04T10:59:10.064Z,15696
2017-06-04T11:00:32.419Z,17440
2017-06-04T11:01:54.473Z,18976
2017-06-04T11:03:17.027Z,14888
2017-06-04T11:04:38.883Z,14024
2017-06-04T11:06:01.083Z,14204
2017-06-04T11:07:23.327Z,13104
2017-06-04T11:08:45.802Z,11684
2017-06-04T11:10:08.292Z,11664
2017-06-04T11:11:30.865Z,11056
2017-06-04T11:12:53.353Z,10280
2017-06-04T11:14:15.196Z,10728
2017-06-04T11:15:37.058Z,12208
2017-06-04T11:16:58.919Z,11060
2017-06-04T11:18:20.779Z,8492
2017-06-04T11:19:43.722Z,7684
2017-06-04T11:21:05.902Z,8264
2017-06-04T11:22:27.442Z,8900
2017-06-04T11:23:49.691Z,9424
2017-06-04T11:25:12.648Z,10640
2017-06-04T11:26:34.812Z,10588
2017-06-04T11:27:57.072Z,10192
2017-06-04T11:29:19.559Z,10260
2017-06-04T11:30:41.857Z,11844
2017-06-04T11:32:04.328Z,14264
2017-06-04T11:33:26.221Z,16384
2017-06-04T11:34:48.381Z,15456
2017-06-04T11:36:10.965Z,13324
2017-06-04T11:37:32.813Z,13492
2017-06-04T11:38:54.984Z,14500
2017-06-04T11:40:16.532Z,18144
2017-06-04T11:41:39.172Z,20192
2017-06-04T11:43:01.331Z,19552
2017-06-04T11:44:23.823Z,17184
2017-06-04T11:45:46.337Z,14280
2017-06-04T11:47:09.165Z,11260
2017-06-04T11:48:31.681Z,8800
2017-06-04T11:49:53.852Z,8332
2017-06-04T11:51:16.021Z,9144
2017-06-04T11:52:38.595Z,9948
2017-06-04T11:54:00.441Z,11960
2017-06-04T11:55:23.107Z,15304
2017-06-04T11:56:45.333Z,17216
2017-06-04T11:58:07.873Z,17888
2017-06-04T11:59:29.418Z,16928
2017-06-04T12:00:51.991Z,16064
2017-06-04T12:02:13.875Z,14952
2017-06-04T12:03:36.659Z,13736
2017-06-04T12:04:58.923Z,13408
2017-06-04T12:06:20.813Z,13348
2017-06-04T12:07:43.051Z,13296
2017-06-04T12:09:05.864Z,15012
2017-06-04T12:10:27.463Z,17888
2017-06-04T12:11:49.310Z,19680
2017-06-04T12:13:11.795Z,18816
2017-06-04T12:14:34.333Z,18048
2017-06-04T12:15:56.520Z,17760
2017-06-04T12:17:18.062Z,17152
2017-06-04T12:18:40.238Z,15224
2017-06-04T12:20:02.655Z,14416
2017-06-04T12:21:24.521Z,13904
2017-06-04T12:22:46.080Z,14476
2017-06-04T12:24:08.254Z,14084
2017-06-04T12:25:30.991Z,13748
2017-06-04T12:26:53.474Z,14772
2017-06-04T12:28:15.343Z,16704
2017-06-04T12:29:37.508Z,17856
2017-06-04T12:30:59.950Z,17344
2017-06-04T12:32:22.140Z,15452
2017-06-04T12:33:44.683Z,14468
2017-06-04T12:35:06.870Z,14380
2017-06-04T12:36:29.348Z,13724
2017-06-04T12:37:51.535Z,13756
2017-06-04T12:39:13.691Z,15008
2017-06-04T12:40:35.937Z,15916
2017-06-04T12:41:58.473Z,15456
2017-06-04T12:43:20.634Z,14116
2017-06-04T12:44:42.820Z,14392
2017-06-04T12:46:05.326Z,17216
2017-06-04T12:47:27.840Z,17888
2017-06-04T12:48:50.021Z,15940
2017-06-04T12:50:12.200Z,14956
2017-06-04T12:51:34.744Z,15060
2017-06-04T12:52:57.529Z,15184
2017-06-04T12:54:19.373Z,15124
2017-06-04T12:55:41.855Z,13312
2017-06-04T12:57:04.110Z,12012
2017-06-04T12:58:26.302Z,11592
2017-06-04T12:59:48.469Z,11144
2017-06-04T13:01:10.009Z,10184
2017-06-04T13:02:32.495Z,8416
2017-06-04T13:03:55.321Z,6956
2017-06-04T13:05:17.491Z,5972
2017-06-04T13:06:39.360Z,5640
2017-06-04T13:08:01.519Z,5912
2017-06-04T13:09:23.950Z,6312
2017-06-04T13:10:46.466Z,7528
2017-06-04T13:12:08.984Z,7256
2017-06-04T13:13:30.830Z,6528
2017-06-04T13:14:53.290Z,5980
2017-06-04T13:16:15.462Z,5708
2017-06-04T13:17:37.310Z,5968
2017-06-04T13:18:59.460Z,7068
2017-06-04T13:20:21.976Z,9204
2017-06-04T13:21:44.137Z,11872
2017-06-04T13:23:06.636Z,14212
2017-06-04T13:24:28.513Z,14856
2017-06-04T13:25:50.933Z,12876
2017-06-04T13:27:13.118Z,10920
2017-06-04T13:28:35.584Z,10376
2017-06-04T13:29:58.101Z,9860
2017-06-04T13:31:20.562Z,8748
2017-06-04T13:32:42.743Z,8380
2017-06-04T13:34:05.246Z,8996
2017-06-04T13:35:27.520Z,9188
2017-06-04T13:36:49.982Z,7888
2017-06-04T13:38:12.492Z,8292
2017-06-04T13:39:34.662Z,8144
2017-06-04T13:40:56.837Z,8956
2017-06-04T13:42:19.272Z,9652
2017-06-04T13:43:41.784Z,10228
2017-06-04T13:45:04.263Z,12040
2017-06-04T13:46:26.793Z,14072
2017-06-04T13:47:48.943Z,14136
2017-06-04T13:49:11.116Z,12504
2017-06-04T13:50:33.332Z,10488
2017-06-04T13:51:55.507Z,8608
2017-06-04T13:53:17.334Z,7156
2017-06-04T13:54:39.488Z,7080
2017-06-04T13:56:02.042Z,8284
2017-06-04T13:57:23.993Z,9036
2017-06-04T13:58:46.460Z,8684
2017-06-04T14:00:08.315Z,9504
2017-06-04T14:01:30.478Z,11648
2017-06-04T14:02:51.433Z,13368
2017-06-04T14:04:13.594Z,14680
2017-06-04T14:05:35.762Z,16704
2017-06-04T14:06:58.227Z,18784
2017-06-04T14:08:20.115Z,19808
2017-06-04T14:09:42.524Z,18944
2017-06-04T14:11:05.013Z,17760
2017-06-04T14:12:27.222Z,17440
2017-06-04T14:13:49.382Z,16392
2017-06-04T14:15:11.553Z,14992
2017-06-04T14:16:33.724Z,14204
2017-06-04T14:17:55.900Z,14068
2017-06-04T14:19:18.149Z,13936
2017-06-04T14:20:40.583Z,14520
2017-06-04T14:22:03.082Z,13912
2017-06-04T14:23:25.636Z,12740
2017-06-04T14:24:47.505Z,11752
2017-06-04T14:26:09.281Z,11148
2017-06-04T14:27:31.780Z,10660
2017-06-04T14:28:53.323Z,10132
2017-06-04T14:30:15.495Z,10248
2017-06-04T14:31:37.985Z,11264
2017-06-04T14:32:59.842Z,12516
2017-06-04T14:34:21.380Z,13524
2017-06-04T14:35:43.882Z,13056
2017-06-04T14:37:06.644Z,11328
2017-06-04T14:38:28.932Z,10976
2017-06-04T14:39:51.133Z,12884
2017-06-04T14:41:12.971Z,15808
2017-06-04T14:42:35.331Z,16352
2017-06-04T14:43:57.515Z,14020
2017-06-04T14:45:20.163Z,12664
2017-06-04T14:46:42.322Z,12012
2017-06-04T14:48:04.437Z,11056
2017-06-04T14:49:26.435Z,9920
2017-06-04T14:50:48.743Z,9752
2017-06-04T14:52:11.252Z,9388
2017-06-04T14:53:34.117Z,9084
2017-06-04T14:54:56.616Z,9100
2017-06-04T14:56:19.102Z,9080
2017-06-04T14:57:41.265Z,8112
2017-06-04T14:59:04.079Z,8180
2017-06-04T15:00:26.073Z,8552
2017-06-04T15:01:48.281Z,9140
2017-06-04T15:03:10.456Z,9536
2017-06-04T15:04:33.153Z,9748
2017-06-04T15:05:55.621Z,8704
2017-06-04T15:07:17.806Z,8228
2017-06-04T15:08:40.310Z,8480
2017-06-04T15:10:03.572Z,9168
2017-06-04T15:11:25.742Z,10232
2017-06-04T15:12:47.605Z,10684
2017-06-04T15:14:09.841Z,10736
2017-06-04T15:15:32.621Z,10944
2017-06-04T15:16:54.794Z,10368
2017-06-04T15:18:16.689Z,9656
2017-06-04T15:19:38.882Z,9348
2017-06-04T15:21:01.035Z,9828
2017-06-04T15:22:23.253Z,10036
2017-06-04T15:23:45.761Z,9472
2017-06-04T15:25:08.262Z,9204
2017-06-04T15:26:30.742Z,8716
2017-06-04T15:27:53.245Z,7544
2017-06-04T15:29:14.600Z,6300
2017-06-04T15:30:37.126Z,5364
2017-06-04T15:31:59.183Z,4628
2017-06-04T15:33:21.392Z,4060
2017-06-04T15:34:43.988Z,3520
2017-06-04T15:36:06.460Z,3040
2017-06-04T15:37:28.514Z,2728
2017-06-04T15:38:50.441Z,2544
2017-06-04T15:40:12.636Z,2472
2017-06-04T15:41:35.110Z,2484
2017-06-04T15:42:57.358Z,2592
2017-06-04T15:44:19.220Z,2840
2017-06-04T15:45:41.391Z,3052
2017-06-04T15:47:03.275Z,3372
2017-06-04T15:48:25.746Z,4188
2017-06-04T15:49:47.920Z,5296
2017-06-04T15:51:10.093Z,6740
2017-06-04T15:52:32.587Z,8992
2017-06-04T15:53:55.393Z,11832
2017-06-04T15:55:17.860Z,14988
2017-06-04T15:56:39.701Z,17472
2017-06-04T15:58:01.568Z,17984
2017-06-04T15:59:24.092Z,17856
2017-06-04T16:00:46.385Z,16928
2017-06-04T16:02:08.542Z,16032
2017-06-04T16:03:31.135Z,14084
2017-06-04T16:04:53.806Z,12164
2017-06-04T16:06:15.672Z,11020
2017-06-04T16:07:38.165Z,9820
2017-06-04T16:09:00.432Z,8972
2017-06-04T16:10:22.848Z,8260
2017-06-04T16:11:45.353Z,7556
2017-06-04T16:13:07.832Z,6952
2017-06-04T16:14:30.295Z,6864
2017-06-04T16:15:52.419Z,6852
2017-06-04T16:17:13.945Z,6572
2017-06-04T16:18:36.433Z,6616
2017-06-04T16:19:58.587Z,6416
2017-06-04T16:21:21.359Z,6432
2017-06-04T16:22:44.043Z,6620
2017-06-04T16:24:06.222Z,7212
2017-06-04T16:25:28.081Z,6132
2017-06-04T16:26:50.733Z,5404
2017-06-04T16:28:12.901Z,5004
2017-06-04T16:29:35.414Z,4960
2017-06-04T16:30:57.302Z,4628
2017-06-04T16:32:20.091Z,4400
2017-06-04T16:33:42.287Z,4572
2017-06-04T16:35:04.153Z,5416
2017-06-04T16:36:26.008Z,6316
2017-06-04T16:37:47.853Z,6700
2017-06-04T16:39:10.335Z,6856
2017-06-04T16:40:32.805Z,6956
2017-06-04T16:41:55.096Z,6636
2017-06-04T16:43:17.584Z,5656
2017-06-04T16:44:39.893Z,5152
2017-06-04T16:46:02.179Z,4764
2017-06-04T16:47:23.702Z,4168
2017-06-04T16:48:46.182Z,3544
2017-06-04T16:50:08.662Z,3428
2017-06-04T16:51:31.233Z,2936
2017-06-04T16:52:53.708Z,2480
2017-06-04T16:54:16.275Z,2292
2017-06-04T16:55:38.445Z,2164
2017-06-04T16:57:00.951Z,2332
2017-06-04T16:58:22.903Z,2540
2017-06-04T16:59:45.674Z,2876
2017-06-04T17:01:07.526Z,3276
2017-06-04T17:02:29.713Z,4208
2017-06-04T17:03:52.211Z,5260
2017-06-04T17:05:14.803Z,6244
2017-06-04T17:06:37.306Z,7388
2017-06-04T17:07:59.304Z,8100
2017-06-04T17:09:21.497Z,7076
2017-06-04T17:10:43.995Z,6100
2017-06-04T17:12:06.509Z,4804
2017-06-04T17:13:29.114Z,3560
2017-06-04T17:14:51.278Z,2632
2017-06-04T17:16:14.203Z,1888
2017-06-04T17:17:36.423Z,1448
2017-06-04T17:18:58.290Z,1296
2017-06-04T17:20:20.793Z,1368
2017-06-04T17:21:42.998Z,1652
2017-06-04T17:23:05.511Z,2184
2017-06-04T17:24:27.713Z,3172
2017-06-04T17:25:50.272Z,4816
2017-06-04T17:27:12.434Z,6416
2017-06-04T17:28:34.924Z,8096
2017-06-04T17:29:56.473Z,8792
2017-06-04T17:31:18.674Z,8584
2017-06-04T17:32:40.862Z,8568
2017-06-04T17:34:03.052Z,8600
2017-06-04T17:35:24.995Z,7848
2017-06-04T17:36:47.535Z,6700
2017-06-04T17:38:10.155Z,5988
2017-06-04T17:39:32.678Z,5440
2017-06-04T17:40:55.383Z,5196
2017-06-04T17:42:17.560Z,5340
2017-06-04T17:43:40.034Z,5728
2017-06-04T17:45:02.213Z,5624
2017-06-04T17:46:24.463Z,5184
2017-06-04T17:47:46.295Z,5252
2017-06-04T17:49:09.296Z,5704
2017-06-04T17:50:31.881Z,6184
2017-06-04T17:51:53.836Z,7032
2017-06-04T17:53:15.384Z,7372
2017-06-04T17:54:37.903Z,7344
2017-06-04T17:55:59.794Z,7300
2017-06-04T17:57:22.032Z,6604
2017-06-04T17:58:44.538Z,5864
2017-06-04T18:00:07.338Z,5396
2017-06-04T18:01:29.898Z,5100
2017-06-04T18:02:52.082Z,4640
2017-06-04T18:04:14.019Z,4264
2017-06-04T18:05:36.196Z,3552
2017-06-04T18:06:58.704Z,3048
2017-06-04T18:08:20.873Z,2932
2017-06-04T18:09:43.404Z,2856
2017-06-04T18:11:05.897Z,3128
2017-06-04T18:12:28.111Z,3572
2017-06-04T18:13:49.977Z,3640
2017-06-04T18:15:12.163Z,3404
2017-06-04T18:16:34.657Z,3908
2017-06-04T18:17:57.163Z,3864
2017-06-04T18:19:19.752Z,3648
2017-06-04T18:20:42.234Z,3684